createdAt,value
2018-10-01T00:00:54.928Z,99.99
2018-10-01T00:01:54.926Z,99.99
2018-10-01T00:02:54.924Z,99.99
2018-10-01T00:03:54.953Z,99.99
2018-10-01T00:04:54.911Z,99.99
2018-10-01T00:05:54.904Z,99.99
2018-10-01T00:06:54.905Z,99.99
2018-10-01T00:07:54.899Z,99.99
2018-10-01T00:08:54.934Z,99.99
2018-10-01T00:09:54.890Z,99.99
2018-10-01T00:10:54.891Z,99.99
2018-10-01T00:11:54.892Z,99.99
2018-10-01T00:12:54.880Z,99.99
2018-10-01T00:13:54.924Z,99.99
2018-10-01T00:14:54.862Z,99.99
2018-10-01T00:15:54.859Z,99.99
2018-10-01T00:16:54.858Z,99.99
2018-10-01T00:17:54.862Z,99.99
2018-10-01T00:18:54.905Z,99.99
2018-10-01T00:19:54.887Z,99.99
2018-10-01T00:20:54.870Z,99.99
2018-10-01T00:21:54.845Z,99.99
2018-10-01T00:22:54.845Z,99.99
2018-10-01T00:23:54.831Z,99.99
2018-10-01T00:24:54.892Z,99.99
2018-10-01T00:25:54.858Z,99.99
2018-10-01T00:26:54.832Z,99.99
2018-10-01T00:27:54.836Z,99.99
2018-10-01T00:28:54.801Z,99.99
2018-10-01T00:29:54.835Z,99.99
2018-10-01T00:30:54.790Z,99.99
2018-10-01T00:31:54.792Z,99.99
2018-10-01T00:32:54.778Z,99.99
2018-10-01T00:33:54.805Z,99.99
2018-10-01T00:34:54.810Z,99.99
2018-10-01T00:35:54.772Z,99.99
2018-10-01T00:36:54.772Z,99.99
2018-10-01T00:37:54.757Z,99.99
2018-10-01T00:38:54.769Z,99.99
2018-10-01T00:39:54.795Z,99.99
2018-10-01T00:40:54.775Z,99.99
2018-10-01T00:41:54.737Z,99.99
2018-10-01T00:42:54.737Z,99.99
2018-10-01T00:43:54.727Z,99.99
2018-10-01T00:44:54.752Z,99.99
2018-10-01T00:45:54.730Z,99.99
2018-10-01T00:46:54.752Z,99.99
2018-10-01T00:47:54.710Z,99.99
2018-10-01T00:48:54.703Z,99.99
2018-10-01T00:49:54.752Z,99.99
2018-10-01T00:50:54.697Z,99.99
2018-10-01T00:51:54.690Z,99.99
2018-10-01T00:52:54.727Z,99.99
2018-10-01T00:53:54.687Z,99.99
2018-10-01T00:54:54.726Z,99.99
2018-10-01T00:55:54.701Z,99.99
2018-10-01T00:56:54.669Z,99.99
2018-10-01T00:57:54.660Z,99.99
2018-10-01T00:58:54.700Z,99.99
2018-10-01T00:59:54.677Z,99.99
2018-10-01T01:00:54.687Z,99.99
2018-10-01T01:01:54.640Z,99.99
2018-10-01T01:02:54.635Z,99.99
2018-10-01T01:03:54.676Z,99.99
2018-10-01T01:04:54.625Z,99.99
2018-10-01T01:05:54.648Z,99.99
2018-10-01T01:06:54.673Z,99.99
2018-10-01T01:07:54.617Z,99.99
2018-10-01T01:08:54.610Z,99.99
2018-10-01T01:09:54.655Z,99.99
2018-10-01T01:10:54.603Z,99.99
2018-10-01T01:11:54.592Z,99.99
2018-10-01T01:12:54.616Z,99.99
2018-10-01T01:13:54.644Z,99.99
2018-10-01T01:14:54.617Z,99.99
2018-10-01T01:15:54.621Z,99.99
2018-10-01T01:16:54.598Z,99.99
2018-10-01T01:17:54.572Z,99.99
2018-10-01T01:18:54.568Z,99.99
2018-10-01T01:19:54.590Z,99.99
2018-10-01T01:20:54.561Z,99.99
2018-10-01T01:21:54.547Z,99.99
2018-10-01T01:22:54.543Z,99.99
2018-10-01T01:23:54.569Z,99.99
2018-10-01T01:24:54.539Z,99.99
2018-10-01T01:25:54.575Z,99.99
2018-10-01T01:26:54.535Z,99.99
2018-10-01T01:27:54.525Z,99.99
2018-10-01T01:28:54.561Z,99.99
2018-10-01T01:29:54.522Z,99.99
2018-10-01T01:30:54.534Z,99.99
2018-10-01T01:31:54.547Z,99.99
2018-10-01T01:32:54.497Z,99.99
2018-10-01T01:33:54.528Z,99.99
2018-10-01T01:34:54.499Z,99.99
2018-10-01T01:35:54.489Z,99.99
2018-10-01T01:36:54.481Z,99.99
2018-10-01T01:37:54.524Z,99.99
2018-10-01T01:38:54.475Z,99.99
2018-10-01T01:39:54.466Z,99.99
2018-10-01T01:40:54.460Z,99.99
2018-10-01T01:41:54.459Z,99.99
2018-10-01T01:42:54.480Z,99.99
2018-10-01T01:43:54.486Z,99.99
2018-10-01T01:44:54.454Z,99.99
2018-10-01T01:45:54.437Z,99.99
2018-10-01T01:46:54.435Z,99.99
2018-10-01T01:47:54.465Z,99.99
2018-10-01T01:48:54.423Z,99.99
2018-10-01T01:49:54.466Z,99.99
2018-10-01T01:50:54.412Z,99.99
2018-10-01T01:51:54.417Z,99.99
2018-10-01T01:52:54.450Z,99.99
2018-10-01T01:53:54.414Z,99.99
2018-10-01T01:54:54.400Z,99.99
2018-10-01T01:55:54.389Z,99.99
2018-10-01T01:56:54.387Z,99.99
2018-10-01T01:57:55.179Z,99.99
2018-10-01T01:58:54.394Z,99.99
2018-10-01T01:59:54.381Z,99.99
2018-10-01T02:00:54.366Z,99.99
2018-10-01T02:01:54.368Z,99.99
2018-10-01T02:02:54.400Z,99.99
2018-10-01T02:03:54.350Z,99.99
2018-10-01T02:04:54.344Z,99.99
2018-10-01T02:05:54.368Z,99.99
2018-10-01T02:06:54.407Z,99.99
2018-10-01T02:07:54.359Z,99.99
2018-10-01T02:08:54.360Z,99.99
2018-10-01T02:09:54.334Z,99.99
2018-10-01T02:10:54.321Z,99.99
2018-10-01T02:11:54.328Z,99.99
2018-10-01T02:12:54.312Z,99.99
2018-10-01T02:13:54.348Z,99.99
2018-10-01T02:14:54.318Z,99.99
2018-10-01T02:15:54.294Z,99.99
2018-10-01T02:16:54.289Z,99.99
2018-10-01T02:17:54.280Z,99.99
2018-10-01T02:18:54.314Z,99.99
2018-10-01T02:19:54.312Z,99.99
2018-10-01T02:20:54.277Z,99.99
2018-10-01T02:21:54.272Z,99.99
2018-10-01T02:22:54.317Z,99.99
2018-10-01T02:23:54.256Z,99.99
2018-10-01T02:24:54.256Z,99.99
2018-10-01T02:25:54.241Z,99.99
2018-10-01T02:26:54.269Z,99.99
2018-10-01T02:27:54.246Z,99.99
2018-10-01T02:28:54.233Z,99.99
2018-10-01T02:29:54.228Z,99.99
2018-10-01T02:30:54.220Z,99.99
2018-10-01T02:31:54.254Z,99.99
2018-10-01T02:32:54.219Z,99.99
2018-10-01T02:33:54.241Z,99.99
2018-10-01T02:34:54.201Z,99.99
2018-10-01T02:35:54.200Z,99.99
2018-10-01T02:36:54.206Z,99.99
2018-10-01T02:37:54.183Z,99.99
2018-10-01T02:38:54.206Z,99.99
2018-10-01T02:39:54.167Z,99.99
2018-10-01T02:40:54.173Z,99.99
2018-10-01T02:41:54.203Z,99.99
2018-10-01T02:42:54.193Z,99.99
2018-10-01T02:43:54.210Z,99.99
2018-10-01T02:44:54.175Z,99.99
2018-10-01T02:45:54.165Z,99.99
2018-10-01T02:46:54.165Z,99.99
2018-10-01T02:47:54.228Z,99.99
2018-10-01T02:48:54.162Z,99.99
2018-10-01T02:49:54.119Z,99.99
2018-10-01T02:50:54.125Z,99.99
2018-10-01T02:51:54.122Z,99.99
2018-10-01T02:52:54.112Z,99.99
2018-10-01T02:53:54.160Z,99.99
2018-10-01T02:54:54.094Z,99.99
2018-10-01T02:55:54.090Z,99.99
2018-10-01T02:56:54.123Z,99.99
2018-10-01T02:57:54.079Z,99.99
2018-10-01T02:58:54.076Z,99.99
2018-10-01T02:59:54.104Z,99.99
2018-10-01T03:00:54.087Z,99.99
2018-10-01T03:01:54.070Z,99.99
2018-10-01T03:02:54.062Z,99.99
2018-10-01T03:03:54.049Z,99.99
2018-10-01T03:04:54.084Z,99.99
2018-10-01T03:05:54.042Z,99.99
2018-10-01T03:06:54.082Z,99.99
2018-10-01T03:07:54.050Z,99.99
2018-10-01T03:08:54.037Z,99.99
2018-10-01T03:09:54.051Z,99.99
2018-10-01T03:10:54.025Z,99.99
2018-10-01T03:11:54.009Z,99.99
2018-10-01T03:12:54.003Z,99.99
2018-10-01T03:13:54.052Z,99.99
2018-10-01T03:14:54.019Z,99.99
2018-10-01T03:15:54.023Z,99.99
2018-10-01T03:16:54.024Z,99.99
2018-10-01T03:17:53.993Z,99.99
2018-10-01T03:18:53.979Z,99.99
2018-10-01T03:19:54.015Z,99.99
2018-10-01T03:20:53.961Z,99.99
2018-10-01T03:21:53.960Z,99.99
2018-10-01T03:22:53.979Z,99.99
2018-10-01T03:23:53.991Z,99.99
2018-10-01T03:24:54.009Z,99.99
2018-10-01T03:25:53.946Z,99.99
2018-10-01T03:26:53.931Z,99.99
2018-10-01T03:27:53.947Z,99.99
2018-10-01T03:28:53.933Z,99.99
2018-10-01T03:29:53.952Z,99.99
2018-10-01T03:30:53.947Z,99.99
2018-10-01T03:31:53.918Z,99.99
2018-10-01T03:32:53.921Z,99.99
2018-10-01T03:33:53.958Z,99.99
2018-10-01T03:34:53.898Z,99.99
2018-10-01T03:35:53.899Z,99.99
2018-10-01T03:36:53.891Z,99.99
2018-10-01T03:37:53.891Z,99.99
2018-10-01T03:38:53.911Z,99.99
2018-10-01T03:39:53.908Z,99.99
2018-10-01T03:40:53.878Z,99.99
2018-10-01T03:41:53.868Z,99.99
2018-10-01T03:42:53.899Z,99.99
2018-10-01T03:43:53.883Z,99.99
2018-10-01T03:44:53.860Z,99.99
2018-10-01T03:45:53.856Z,99.99
2018-10-01T03:46:53.843Z,99.99
2018-10-01T03:47:53.846Z,99.99
2018-10-01T03:48:53.865Z,99.99
2018-10-01T03:49:53.857Z,99.99
2018-10-01T03:50:53.840Z,99.99
2018-10-01T03:51:53.819Z,99.99
2018-10-01T03:52:53.816Z,99.99
2018-10-01T03:53:53.813Z,99.99
2018-10-01T03:54:53.841Z,99.99
2018-10-01T03:55:53.797Z,99.99
2018-10-01T03:56:53.791Z,99.99
2018-10-01T03:57:53.786Z,99.99
2018-10-01T03:58:53.786Z,99.99
2018-10-01T03:59:53.828Z,99.99
2018-10-01T04:00:53.776Z,99.99
2018-10-01T04:01:53.775Z,99.99
2018-10-01T04:02:53.810Z,99.99
2018-10-01T04:03:53.759Z,99.99
2018-10-01T04:04:53.780Z,99.99
2018-10-01T04:05:53.802Z,99.99
2018-10-01T04:06:53.761Z,99.99
2018-10-01T04:07:53.739Z,99.99
2018-10-01T04:08:53.822Z,99.99
2018-10-01T04:09:53.761Z,99.99
2018-10-01T04:10:53.725Z,99.99
2018-10-01T04:11:53.758Z,99.99
2018-10-01T04:12:53.719Z,99.99
2018-10-01T04:13:53.765Z,99.99
2018-10-01T04:14:53.716Z,99.99
2018-10-01T04:15:53.698Z,99.99
2018-10-01T04:16:53.693Z,99.99
2018-10-01T04:17:53.698Z,99.99
2018-10-01T04:18:53.716Z,99.99
2018-10-01T04:19:53.734Z,99.99
2018-10-01T04:20:53.682Z,99.99
2018-10-01T04:21:53.676Z,99.99
2018-10-01T04:22:53.683Z,99.99
2018-10-01T04:23:53.719Z,99.99
2018-10-01T04:24:53.664Z,99.99
2018-10-01T04:25:53.707Z,99.99
2018-10-01T04:26:53.670Z,99.99
2018-10-01T04:27:53.676Z,99.99
2018-10-01T04:28:53.638Z,99.99
2018-10-01T04:29:53.638Z,99.99
2018-10-01T04:30:53.632Z,99.99
2018-10-01T04:31:53.645Z,99.99
2018-10-01T04:32:53.695Z,99.99
2018-10-01T04:33:53.646Z,99.99
2018-10-01T04:34:53.623Z,99.99
2018-10-01T04:35:53.623Z,99.99
2018-10-01T04:36:53.637Z,99.99
2018-10-01T04:37:53.643Z,99.99
2018-10-01T04:38:53.623Z,99.99
2018-10-01T04:39:53.606Z,99.99
2018-10-01T04:40:53.632Z,99.99
2018-10-01T04:41:53.597Z,99.99
2018-10-01T04:42:53.614Z,99.99
2018-10-01T04:43:53.581Z,99.99
2018-10-01T04:44:53.558Z,99.99
2018-10-01T04:45:53.588Z,99.99
2018-10-01T04:46:53.665Z,99.99
2018-10-01T04:47:53.614Z,99.99
2018-10-01T04:48:53.581Z,99.99
2018-10-01T04:49:53.572Z,99.99
2018-10-01T04:50:53.560Z,99.99
2018-10-01T04:51:53.546Z,99.99
2018-10-01T04:52:53.570Z,99.99
2018-10-01T04:53:53.548Z,99.99
2018-10-01T04:54:53.514Z,99.99
2018-10-01T04:55:53.550Z,99.99
2018-10-01T04:56:53.508Z,99.99
2018-10-01T04:57:53.493Z,99.99
2018-10-01T04:58:53.544Z,99.99
2018-10-01T04:59:53.508Z,99.99
2018-10-01T05:00:53.524Z,99.99
2018-10-01T05:01:53.534Z,99.99
2018-10-01T05:02:53.496Z,99.99
2018-10-01T05:03:53.496Z,99.99
2018-10-01T05:04:53.506Z,99.99
2018-10-01T05:05:53.481Z,99.99
2018-10-01T05:06:53.472Z,99.99
2018-10-01T05:07:53.507Z,99.99
2018-10-01T05:08:53.508Z,99.99
2018-10-01T05:09:53.449Z,99.99
2018-10-01T05:10:53.445Z,99.99
2018-10-01T05:11:53.444Z,99.99
2018-10-01T05:12:53.447Z,99.99
2018-10-01T05:13:53.466Z,99.99
2018-10-01T05:14:53.594Z,99.99
2018-10-01T05:15:53.467Z,99.99
2018-10-01T05:16:53.430Z,99.99
2018-10-01T05:17:53.397Z,99.99
2018-10-01T05:18:53.419Z,99.99
2018-10-01T05:19:53.404Z,99.99
2018-10-01T05:20:53.450Z,99.99
2018-10-01T05:21:53.414Z,99.99
2018-10-01T05:22:53.394Z,99.99
2018-10-01T05:23:53.395Z,99.99
2018-10-01T05:24:53.377Z,99.99
2018-10-01T05:25:53.401Z,99.99
2018-10-01T05:26:53.410Z,99.99
2018-10-01T05:27:53.386Z,99.99
2018-10-01T05:28:53.364Z,99.99
2018-10-01T05:29:53.346Z,99.99
2018-10-01T05:30:53.385Z,99.99
2018-10-01T05:31:53.388Z,99.99
2018-10-01T05:32:53.362Z,99.99
2018-10-01T05:33:53.324Z,99.99
2018-10-01T05:34:53.333Z,99.99
2018-10-01T05:35:53.316Z,99.99
2018-10-01T05:36:53.329Z,99.99
2018-10-01T05:37:53.344Z,99.99
2018-10-01T05:38:53.339Z,99.99
2018-10-01T05:39:53.342Z,99.99
2018-10-01T05:40:53.308Z,99.99
2018-10-01T05:41:53.403Z,99.99
2018-10-01T05:42:53.333Z,99.99
2018-10-01T05:43:53.294Z,99.99
2018-10-01T05:44:53.285Z,99.99
2018-10-01T05:45:53.314Z,99.99
2018-10-01T05:46:53.303Z,99.99
2018-10-01T05:47:53.363Z,99.99
2018-10-01T05:48:53.288Z,99.99
2018-10-01T05:49:53.288Z,99.99
2018-10-01T05:50:53.287Z,99.99
2018-10-01T05:51:53.273Z,99.99
2018-10-01T05:52:53.298Z,99.99
2018-10-01T05:53:53.260Z,99.99
2018-10-01T05:54:53.242Z,99.99
2018-10-01T05:55:53.228Z,99.99
2018-10-01T05:56:53.336Z,99.99
2018-10-01T05:57:53.259Z,99.99
2018-10-01T05:58:54.228Z,99.99
2018-10-01T05:59:53.217Z,99.99
2018-10-01T06:00:53.221Z,99.99
2018-10-01T06:01:53.247Z,99.99
2018-10-01T06:02:53.245Z,99.99
2018-10-01T06:03:53.337Z,99.99
2018-10-01T06:04:53.348Z,99.99
2018-10-01T06:05:53.287Z,99.99
2018-10-01T06:06:53.423Z,99.99
2018-10-01T06:07:53.354Z,99.99
2018-10-01T06:08:53.185Z,99.99
2018-10-01T06:09:53.191Z,99.99
2018-10-01T06:10:53.256Z,99.99
2018-10-01T06:11:53.226Z,99.99
2018-10-01T06:12:53.205Z,99.99
2018-10-01T06:13:53.215Z,99.99
2018-10-01T06:14:53.163Z,99.99
2018-10-01T06:15:53.322Z,99.99
2018-10-01T06:16:53.196Z,99.99
2018-10-01T06:17:53.163Z,99.99
2018-10-01T06:18:53.191Z,99.99
2018-10-01T06:19:53.142Z,99.99
2018-10-01T06:20:53.148Z,99.99
2018-10-01T06:21:53.160Z,99.99
2018-10-01T06:22:53.190Z,99.99
2018-10-01T06:23:54.173Z,99.99
2018-10-01T06:24:53.149Z,99.99
2018-10-01T06:25:53.128Z,99.99
2018-10-01T06:26:53.131Z,99.99
2018-10-01T06:27:53.152Z,99.99
2018-10-01T06:28:53.131Z,99.99
2018-10-01T06:29:53.129Z,99.99
2018-10-01T06:30:53.134Z,99.99
2018-10-01T06:31:53.124Z,99.99
2018-10-01T06:32:53.135Z,99.99
2018-10-01T06:33:53.193Z,99.99
2018-10-01T06:34:53.117Z,99.99
2018-10-01T06:35:53.130Z,99.99
2018-10-01T06:36:53.114Z,99.99
2018-10-01T06:37:53.168Z,99.99
2018-10-01T06:38:53.089Z,99.99
2018-10-01T06:39:53.125Z,99.99
2018-10-01T06:40:53.104Z,99.99
2018-10-01T06:41:53.206Z,99.99
2018-10-01T06:42:53.108Z,99.99
2018-10-01T06:43:53.095Z,99.99
2018-10-01T06:44:53.313Z,99.99
2018-10-01T06:45:53.071Z,99.99
2018-10-01T06:46:53.074Z,99.99
2018-10-01T06:47:53.088Z,99.99
2018-10-01T06:48:53.109Z,99.99
2018-10-01T06:49:53.066Z,99.99
2018-10-01T06:50:53.094Z,99.99
2018-10-01T06:51:53.062Z,99.99
2018-10-01T06:52:53.086Z,99.99
2018-10-01T06:53:53.061Z,99.99
2018-10-01T06:54:53.064Z,99.99
2018-10-01T06:55:53.034Z,99.99
2018-10-01T06:56:53.030Z,99.99
2018-10-01T06:57:53.066Z,99.99
2018-10-01T06:58:53.197Z,99.99
2018-10-01T06:59:53.038Z,99.99
2018-10-01T07:00:53.016Z,99.99
2018-10-01T07:01:53.023Z,99.99
2018-10-01T07:02:53.057Z,99.99
2018-10-01T07:03:53.038Z,99.99
2018-10-01T07:04:53.058Z,99.99
2018-10-01T07:05:53.216Z,99.99
2018-10-01T07:06:53.010Z,99.99
2018-10-01T07:07:53.026Z,99.99
2018-10-01T07:08:53.006Z,99.99
2018-10-01T07:09:53.047Z,99.99
2018-10-01T07:10:52.999Z,99.99
2018-10-01T07:11:53.033Z,99.99
2018-10-01T07:12:53.042Z,99.99
2018-10-01T07:13:53.001Z,99.99
2018-10-01T07:14:52.999Z,99.99
2018-10-01T07:15:52.981Z,99.99
2018-10-01T07:16:53.048Z,99.99
2018-10-01T07:17:53.013Z,99.99
2018-10-01T07:18:52.973Z,99.99
2018-10-01T07:19:52.978Z,99.99
2018-10-01T07:20:52.977Z,99.99
2018-10-01T07:21:52.976Z,99.99
2018-10-01T07:22:53.077Z,99.99
2018-10-01T07:23:53.016Z,99.99
2018-10-01T07:24:52.969Z,99.99
2018-10-01T07:25:52.969Z,99.99
2018-10-01T07:26:52.972Z,99.99
2018-10-01T07:27:52.998Z,99.99
2018-10-01T07:28:52.972Z,99.99
2018-10-01T07:29:53.008Z,99.99
2018-10-01T07:30:52.956Z,99.99
2018-10-01T07:31:52.969Z,99.99
2018-10-01T07:32:53.003Z,99.99
2018-10-01T07:33:52.956Z,99.99
2018-10-01T07:34:52.965Z,99.99
2018-10-01T07:35:52.988Z,99.99
2018-10-01T07:36:52.972Z,99.99
2018-10-01T07:37:52.985Z,99.99
2018-10-01T07:38:53.068Z,99.99
2018-10-01T07:39:52.961Z,99.99
2018-10-01T07:40:52.993Z,99.99
2018-10-01T07:41:53.000Z,99.99
2018-10-01T07:42:52.955Z,99.99
2018-10-01T07:43:52.968Z,99.99
2018-10-01T07:44:53.024Z,99.99
2018-10-01T07:45:52.970Z,99.99
2018-10-01T07:46:53.010Z,99.99
2018-10-01T07:47:52.957Z,99.99
2018-10-01T07:48:52.950Z,99.99
2018-10-01T07:49:52.974Z,99.99
2018-10-01T07:50:52.985Z,99.99
2018-10-01T07:51:52.999Z,99.99
2018-10-01T07:52:53.014Z,99.99
2018-10-01T07:53:52.969Z,99.99
2018-10-01T07:54:52.947Z,99.99
2018-10-01T07:55:52.970Z,99.99
2018-10-01T07:56:52.961Z,99.99
2018-10-01T07:57:53.004Z,99.99
2018-10-01T07:58:52.959Z,99.99
2018-10-01T07:59:53.008Z,99.99
2018-10-01T08:00:52.937Z,99.99
2018-10-01T08:01:52.945Z,99.99
2018-10-01T08:02:52.989Z,99.99
2018-10-01T08:03:52.940Z,99.99
2018-10-01T08:04:52.940Z,99.99
2018-10-01T08:05:52.948Z,99.99
2018-10-01T08:06:52.942Z,99.99
2018-10-01T08:07:52.968Z,99.99
2018-10-01T08:08:52.967Z,99.99
2018-10-01T08:09:52.932Z,99.99
2018-10-01T08:10:52.941Z,99.99
2018-10-01T08:11:52.971Z,98.99
2018-10-01T08:12:52.936Z,97.70
2018-10-01T08:13:52.937Z,98.08
2018-10-01T08:14:52.943Z,98.85
2018-10-01T08:15:53.030Z,98.18
2018-10-01T08:16:52.931Z,98.61
2018-10-01T08:17:52.971Z,98.13
2018-10-01T08:18:52.927Z,97.46
2018-10-01T08:19:52.936Z,96.51
2018-10-01T08:20:52.931Z,96.80
2018-10-01T08:21:52.934Z,95.94
2018-10-01T08:22:52.971Z,96.98
2018-10-01T08:23:52.932Z,96.61
2018-10-01T08:24:52.937Z,96.70
2018-10-01T08:25:52.933Z,96.41
2018-10-01T08:26:52.964Z,96.89
2018-10-01T08:27:52.963Z,97.85
2018-10-01T08:28:52.976Z,97.56
2018-10-01T08:29:53.043Z,98.03
2018-10-01T08:30:52.934Z,98.90
2018-10-01T08:31:52.938Z,99.56
2018-10-01T08:32:52.968Z,99.37
2018-10-01T08:33:52.973Z,99.66
2018-10-01T08:34:53.017Z,99.46
2018-10-01T08:35:52.941Z,99.13
2018-10-01T08:36:52.934Z,98.27
2018-10-01T08:37:52.991Z,98.47
2018-10-01T08:38:52.994Z,96.98
2018-10-01T08:39:52.931Z,98.42
2018-10-01T08:40:52.961Z,99.13
2018-10-01T08:41:52.935Z,99.42
2018-10-01T08:42:52.970Z,96.75
2018-10-01T08:43:52.939Z,96.66
2018-10-01T08:44:52.932Z,97.75
2018-10-01T08:45:52.935Z,98.22
2018-10-01T08:46:52.974Z,97.56
2018-10-01T08:47:52.956Z,97.80
2018-10-01T08:48:52.929Z,97.42
2018-10-01T08:49:52.931Z,97.32
2018-10-01T08:50:52.933Z,95.27
2018-10-01T08:51:53.035Z,93.74
2018-10-01T08:52:52.962Z,94.56
2018-10-01T08:53:52.933Z,94.56
2018-10-01T08:54:52.988Z,94.36
2018-10-01T08:55:52.936Z,94.22
2018-10-01T08:56:52.934Z,93.36
2018-10-01T08:57:52.968Z,93.88
2018-10-01T08:58:52.948Z,93.88
2018-10-01T08:59:52.941Z,94.03
2018-10-01T09:00:52.935Z,94.03
2018-10-01T09:01:52.935Z,92.88
2018-10-01T09:02:52.988Z,92.97
2018-10-01T09:03:52.936Z,93.12
2018-10-01T09:04:52.942Z,92.36
2018-10-01T09:05:52.940Z,92.83
2018-10-01T09:06:53.034Z,93.12
2018-10-01T09:07:52.972Z,92.79
2018-10-01T09:08:52.996Z,93.55
2018-10-01T09:09:53.126Z,94.41
2018-10-01T09:10:52.947Z,94.27
2018-10-01T09:11:52.955Z,93.36
2018-10-01T09:12:52.983Z,94.89
2018-10-01T09:13:52.952Z,95.08
2018-10-01T09:14:57.832Z,94.17
2018-10-01T09:15:52.953Z,94.36
2018-10-01T09:16:52.951Z,94.98
2018-10-01T09:17:52.989Z,96.22
2018-10-01T09:18:52.953Z,95.70
2018-10-01T09:19:53.011Z,95.32
2018-10-01T09:20:52.961Z,94.79
2018-10-01T09:21:52.961Z,94.51
2018-10-01T09:22:52.992Z,93.45
2018-10-01T09:23:52.970Z,95.32
2018-10-01T09:24:52.961Z,95.12
2018-10-01T09:25:53.002Z,95.22
2018-10-01T09:26:52.966Z,95.89
2018-10-01T09:27:52.997Z,96.27
2018-10-01T09:28:52.976Z,96.84
2018-10-01T09:29:52.970Z,96.42
2018-10-01T09:30:53.010Z,96.13
2018-10-01T09:31:53.034Z,95.07
2018-10-01T09:32:52.972Z,94.79
2018-10-01T09:33:52.992Z,95.36
2018-10-01T09:34:52.972Z,94.41
2018-10-01T09:35:52.975Z,94.65
2018-10-01T09:36:53.013Z,93.98
2018-10-01T09:37:53.018Z,94.07
2018-10-01T09:38:52.975Z,93.88
2018-10-01T09:39:52.977Z,92.69
2018-10-01T09:40:53.013Z,91.44
2018-10-01T09:41:52.988Z,91.44
2018-10-01T09:42:52.984Z,91.63
2018-10-01T09:43:52.984Z,92.21
2018-10-01T09:44:52.990Z,92.88
2018-10-01T09:45:53.022Z,92.40
2018-10-01T09:46:53.050Z,93.64
2018-10-01T09:47:53.044Z,92.88
2018-10-01T09:48:53.009Z,92.25
2018-10-01T09:49:52.999Z,93.93
2018-10-01T09:50:53.003Z,93.64
2018-10-01T09:51:53.037Z,92.54
2018-10-01T09:52:53.034Z,94.65
2018-10-01T09:53:53.117Z,97.04
2018-10-01T09:54:53.012Z,97.42
2018-10-01T09:55:53.013Z,97.23
2018-10-01T09:56:53.052Z,96.99
2018-10-01T09:57:53.012Z,97.18
2018-10-01T09:58:53.023Z,97.75
2018-10-01T09:59:53.021Z,98.80
2018-10-01T10:00:53.809Z,98.99
2018-10-01T10:01:53.065Z,98.61
2018-10-01T10:02:53.022Z,99.48
2018-10-01T10:03:53.062Z,99.99
2018-10-01T10:04:53.071Z,99.99
2018-10-01T10:05:53.066Z,99.99
2018-10-01T10:06:53.062Z,99.99
2018-10-01T10:07:53.027Z,99.57
2018-10-01T10:08:53.039Z,99.99
2018-10-01T10:09:53.041Z,99.99
2018-10-01T10:10:53.031Z,99.99
2018-10-01T10:11:53.057Z,99.99
2018-10-01T10:12:53.036Z,99.99
2018-10-01T10:13:53.041Z,99.99
2018-10-01T10:14:53.076Z,99.99
2018-10-01T10:15:53.043Z,99.99
2018-10-01T10:16:53.175Z,99.95
2018-10-01T10:17:53.076Z,99.99
2018-10-01T10:18:53.038Z,99.99
2018-10-01T10:19:53.044Z,99.99
2018-10-01T10:20:53.076Z,99.99
2018-10-01T10:21:53.079Z,99.99
2018-10-01T10:22:53.129Z,99.99
2018-10-01T10:23:53.045Z,99.99
2018-10-01T10:24:53.045Z,99.99
2018-10-01T10:25:53.070Z,99.99
2018-10-01T10:26:53.084Z,99.99
2018-10-01T10:27:53.057Z,99.99
2018-10-01T10:28:53.061Z,99.99
2018-10-01T10:29:53.049Z,99.99
2018-10-01T10:30:53.062Z,99.99
2018-10-01T10:31:53.088Z,99.99
2018-10-01T10:32:53.077Z,99.99
2018-10-01T10:33:53.092Z,99.99
2018-10-01T10:34:53.059Z,99.99
2018-10-01T10:35:53.062Z,99.99
2018-10-01T10:36:53.093Z,99.99
2018-10-01T10:37:53.070Z,99.99
2018-10-01T10:38:53.065Z,99.99
2018-10-01T10:39:53.064Z,99.99
2018-10-01T10:40:53.057Z,99.99
2018-10-01T10:41:53.122Z,99.99
2018-10-01T10:42:53.105Z,99.99
2018-10-01T10:43:53.087Z,99.99
2018-10-01T10:44:53.056Z,99.99
2018-10-01T10:45:53.066Z,99.99
2018-10-01T10:46:53.068Z,99.99
2018-10-01T10:47:53.092Z,99.99
2018-10-01T10:48:53.097Z,99.99
2018-10-01T10:49:53.061Z,99.99
2018-10-01T10:50:53.076Z,99.99
2018-10-01T10:51:53.095Z,99.99
2018-10-01T10:52:53.060Z,99.99
2018-10-01T10:53:53.070Z,99.99
2018-10-01T10:54:53.060Z,99.99
2018-10-01T10:55:53.062Z,99.99
2018-10-01T10:56:53.189Z,99.99
2018-10-01T10:57:53.062Z,99.99
2018-10-01T10:58:53.058Z,99.99
2018-10-01T10:59:53.083Z,99.99
2018-10-01T11:00:53.068Z,99.99
2018-10-01T11:01:53.061Z,99.99
2018-10-01T11:02:53.093Z,99.99
2018-10-01T11:03:53.098Z,99.99
2018-10-01T11:04:53.064Z,99.99
2018-10-01T11:05:53.072Z,99.99
2018-10-01T11:06:53.100Z,99.99
2018-10-01T11:07:53.066Z,99.99
2018-10-01T11:08:53.057Z,99.99
2018-10-01T11:09:53.060Z,99.99
2018-10-01T11:10:53.065Z,99.99
2018-10-01T11:11:53.083Z,99.99
2018-10-01T11:12:53.106Z,99.99
2018-10-01T11:13:53.070Z,99.99
2018-10-01T11:14:53.240Z,99.99
2018-10-01T11:15:53.059Z,99.99
2018-10-01T11:16:53.093Z,99.99
2018-10-01T11:17:53.086Z,99.99
2018-10-01T11:18:53.278Z,99.99
2018-10-01T11:19:53.158Z,99.99
2018-10-01T11:20:53.162Z,99.99
2018-10-01T11:21:53.145Z,99.99
2018-10-01T11:22:53.100Z,99.99
2018-10-01T11:23:53.061Z,99.99
2018-10-01T11:24:53.046Z,99.99
2018-10-01T11:25:53.058Z,99.99
2018-10-01T11:26:53.143Z,99.99
2018-10-01T11:27:53.141Z,99.99
2018-10-01T11:28:53.062Z,99.99
2018-10-01T11:29:53.046Z,99.99
2018-10-01T11:30:53.056Z,99.99
2018-10-01T11:31:53.345Z,99.99
2018-10-01T11:32:53.053Z,99.99
2018-10-01T11:33:53.040Z,99.99
2018-10-01T11:34:53.084Z,99.99
2018-10-01T11:35:53.029Z,99.99
2018-10-01T11:36:53.072Z,99.99
2018-10-01T11:37:53.029Z,99.99
2018-10-01T11:38:53.027Z,99.99
2018-10-01T11:39:53.034Z,99.99
2018-10-01T11:40:53.029Z,99.99
2018-10-01T11:41:53.070Z,99.99
2018-10-01T11:42:53.036Z,99.99
2018-10-01T11:43:53.030Z,99.99
2018-10-01T11:44:53.021Z,99.99
2018-10-01T11:45:53.035Z,99.99
2018-10-01T11:46:53.051Z,99.99
2018-10-01T11:47:53.046Z,99.99
2018-10-01T11:48:53.014Z,99.99
2018-10-01T11:49:53.015Z,99.99
2018-10-01T11:50:53.065Z,99.99
2018-10-01T11:51:53.060Z,99.99
2018-10-01T11:52:53.014Z,99.99
2018-10-01T11:53:53.005Z,99.99
2018-10-01T11:54:53.032Z,99.99
2018-10-01T11:55:53.010Z,99.99
2018-10-01T11:56:53.067Z,99.99
2018-10-01T11:57:53.043Z,99.99
2018-10-01T11:58:53.008Z,99.99
2018-10-01T11:59:53.014Z,99.99
2018-10-01T12:00:53.019Z,99.99
2018-10-01T12:01:53.036Z,99.99
2018-10-01T12:02:53.017Z,99.99
2018-10-01T12:03:53.089Z,99.99
2018-10-01T12:04:52.989Z,99.99
2018-10-01T12:05:53.010Z,99.99
2018-10-01T12:06:53.017Z,99.99
2018-10-01T12:07:53.023Z,99.99
2018-10-01T12:08:52.992Z,99.99
2018-10-01T12:09:53.124Z,99.99
2018-10-01T12:10:53.008Z,99.99
2018-10-01T12:11:52.994Z,99.99
2018-10-01T12:12:53.031Z,99.99
2018-10-01T12:13:52.977Z,99.99
2018-10-01T12:14:52.992Z,99.99
2018-10-01T12:15:53.128Z,99.99
2018-10-01T12:16:52.996Z,99.99
2018-10-01T12:17:53.029Z,99.99
2018-10-01T12:18:52.984Z,99.99
2018-10-01T12:19:52.977Z,99.99
2018-10-01T12:20:52.991Z,99.99
2018-10-01T12:21:53.027Z,99.99
2018-10-01T12:22:52.992Z,99.99
2018-10-01T12:23:52.965Z,99.99
2018-10-01T12:24:52.970Z,99.99
2018-10-01T12:25:53.023Z,99.99
2018-10-01T12:26:52.990Z,99.99
2018-10-01T12:27:52.971Z,99.99
2018-10-01T12:28:52.968Z,99.99
2018-10-01T12:29:52.939Z,99.99
2018-10-01T12:30:53.005Z,99.99
2018-10-01T12:31:52.987Z,99.99
2018-10-01T12:32:52.987Z,99.99
2018-10-01T12:33:52.938Z,99.99
2018-10-01T12:34:52.977Z,99.99
2018-10-01T12:35:52.943Z,99.99
2018-10-01T12:36:52.984Z,99.99
2018-10-01T12:37:52.950Z,99.99
2018-10-01T12:38:52.918Z,99.99
2018-10-01T12:39:52.964Z,99.99
2018-10-01T12:40:52.971Z,99.99
2018-10-01T12:41:52.974Z,99.99
2018-10-01T12:42:52.943Z,99.99
2018-10-01T12:43:52.964Z,99.99
2018-10-01T12:44:52.956Z,99.99
2018-10-01T12:45:52.939Z,99.99
2018-10-01T12:46:52.982Z,99.99
2018-10-01T12:47:52.913Z,99.99
2018-10-01T12:48:52.896Z,99.99
2018-10-01T12:49:52.906Z,99.99
2018-10-01T12:50:52.891Z,99.99
2018-10-01T12:51:52.942Z,99.99
2018-10-01T12:52:52.877Z,99.99